»·PEaware :: SKW2749 KAST-KBOI

SKW2749 :: KAST-KBOI

FLIGHT INFORMATION

Flight Status: Arrived
Operator:
SkyWest Airlines
More flights by this operator :: More flights under this callsign
Pilot: Paul K. (16555)
Aircraft: BOEING 737-200
(B732)
More flights by this aircraft type
Origin: KAST Astoria Regl
United States
Destination: KBOI Boise Air Terminal/Gowen
United States
More flights between these airports :: More routes between these airports
Route: AST BTG J15 IMB/N0371F170 V500 HOSTS PARMO3
File this flight plan on PilotEdge
Remarks:
Altitude:
(Current/Filed)
31,000ft
Speed:
(Current/Filed)
430kts
Departed: 20-Sep-18 06:12 PM
Arrived: 20-Sep-18 07:17 PM
Distance/Time
Traveled:
361nm/1:05
Distance/Time
To Go:
Arrived

Flight Plot

Page will automatically refresh every two minutes.

Flight plan parsing failed; only flown route is shown


Map Options




Map Legend


Flown Route
Filed Route
Departure Airport
Arrival Airport
Navaid (VOR, NDB)
Fix

Horizontal Profiles

Position Reports

Time Latitude Longitude Heading Altitude Ground
Speed
20-Sep-18 17:08 46.156222 -123.881438 241 24ft 0kts
20-Sep-18 17:09 46.156222 -123.881438 241 24ft 0kts
20-Sep-18 17:10 46.156222 -123.881438 241 24ft 0kts
20-Sep-18 17:11 46.156222 -123.881438 241 24ft 0kts
20-Sep-18 17:12 46.156222 -123.881438 241 24ft 0kts
20-Sep-18 17:13 46.156222 -123.881438 241 24ft 0kts
20-Sep-18 17:14 46.156222 -123.881438 241 24ft 0kts
20-Sep-18 17:15 46.156222 -123.881438 241 24ft 0kts
20-Sep-18 17:16 46.156222 -123.881438 241 24ft 0kts
20-Sep-18 17:17 46.156222 -123.881438 241 24ft 0kts
20-Sep-18 17:18 46.156222 -123.881438 241 24ft 0kts
20-Sep-18 17:19 46.156222 -123.881438 241 24ft 0kts
20-Sep-18 17:20 46.156222 -123.881438 241 24ft 0kts
20-Sep-18 17:21 46.156222 -123.881438 241 24ft 0kts
20-Sep-18 17:22 46.156222 -123.881438 241 24ft 0kts
20-Sep-18 17:23 46.156222 -123.881438 241 24ft 0kts
20-Sep-18 17:24 46.156222 -123.881438 241 24ft 0kts
20-Sep-18 17:25 46.156222 -123.881438 241 24ft 0kts
20-Sep-18 17:26 46.156222 -123.881438 241 24ft 0kts
20-Sep-18 17:27 46.156222 -123.881438 241 24ft 0kts
20-Sep-18 17:28 46.156222 -123.881438 241 24ft 0kts
20-Sep-18 17:29 46.156222 -123.881438 241 24ft 0kts
20-Sep-18 17:30 46.156222 -123.881438 241 24ft 0kts
20-Sep-18 17:31 46.156222 -123.881438 241 24ft 0kts
20-Sep-18 17:32 46.156222 -123.881438 241 24ft 0kts
20-Sep-18 17:33 46.156222 -123.881438 241 24ft 0kts
20-Sep-18 17:34 46.156222 -123.881438 241 24ft 0kts
20-Sep-18 17:35 46.156222 -123.881438 241 24ft 0kts
20-Sep-18 17:36 46.156222 -123.881438 241 24ft 0kts
20-Sep-18 17:37 46.156222 -123.881438 241 24ft 0kts
20-Sep-18 17:38 46.156222 -123.881438 241 24ft 0kts
20-Sep-18 17:39 46.156222 -123.881438 241 24ft 0kts
20-Sep-18 17:40 46.156222 -123.881438 241 24ft 0kts
20-Sep-18 17:41 46.156222 -123.881438 241 24ft 0kts
20-Sep-18 17:42 46.156222 -123.881438 241 24ft 0kts
20-Sep-18 17:43 46.156222 -123.881438 241 24ft 0kts
20-Sep-18 17:44 46.156222 -123.881438 241 24ft 0kts
20-Sep-18 17:45 46.156222 -123.881438 241 24ft 0kts
20-Sep-18 17:46 46.156222 -123.881438 241 24ft 0kts
20-Sep-18 17:47 46.156222 -123.881438 241 24ft 0kts
20-Sep-18 17:48 46.156222 -123.881438 241 24ft 0kts
20-Sep-18 17:49 46.156222 -123.881438 241 24ft 0kts
20-Sep-18 17:50 46.156222 -123.881438 241 24ft 0kts
20-Sep-18 17:51 46.156222 -123.881438 241 24ft 0kts
20-Sep-18 17:52 46.156222 -123.881438 241 24ft 0kts
20-Sep-18 17:53 46.156223 -123.881436 242 24ft 0kts
20-Sep-18 17:54 46.156238 -123.881186 305 24ft 2kts
20-Sep-18 17:55 46.156125 -123.881080 333 24ft 0kts
20-Sep-18 17:56 46.156125 -123.881080 333 24ft 0kts
20-Sep-18 17:57 46.156125 -123.881080 333 24ft 0kts
20-Sep-18 17:58 46.156125 -123.881080 333 24ft 0kts
20-Sep-18 17:59 46.156125 -123.881080 333 24ft 0kts
20-Sep-18 18:00 46.156125 -123.881080 333 24ft 0kts
20-Sep-18 18:01 46.156125 -123.881080 333 24ft 0kts
20-Sep-18 18:02 46.156125 -123.881080 333 24ft 0kts
20-Sep-18 18:03 46.156125 -123.881080 333 24ft 0kts
20-Sep-18 18:04 46.156489 -123.881328 335 24ft 9kts
20-Sep-18 18:05 46.158243 -123.877388 94 24ft 25kts
20-Sep-18 18:06 46.157652 -123.868722 95 24ft 19kts
20-Sep-18 18:07 46.157653 -123.868110 79 24ft 0kts
20-Sep-18 18:08 46.157653 -123.868110 79 24ft 0kts
20-Sep-18 18:09 46.157653 -123.868110 79 24ft 0kts
20-Sep-18 18:10 46.157653 -123.868110 79 24ft 0kts
20-Sep-18 18:11 46.157653 -123.868110 79 24ft 0kts
20-Sep-18 18:12 46.157653 -123.868110 79 24ft 0kts
20-Sep-18 18:13 46.158256 -123.867222 316 24ft 0kts
20-Sep-18 18:14 46.160705 -123.900398 275 888ft 151kts
20-Sep-18 18:15 46.168502 -123.970443 281 3008ft 202kts
20-Sep-18 18:16 46.214619 -123.986611 57 6404ft 221kts
20-Sep-18 18:17 46.195107 -123.908571 122 8989ft 234kts
20-Sep-18 18:18 46.162780 -123.824787 121 11337ft 253kts
20-Sep-18 18:19 46.116480 -123.726685 118 12146ft 340kts
20-Sep-18 18:20 46.074781 -123.597960 116 14321ft 363kts
20-Sep-18 18:21 46.031033 -123.463963 115 16378ft 378kts
20-Sep-18 18:22 45.986298 -123.324852 116 18183ft 392kts
20-Sep-18 18:23 45.942588 -123.189064 116 19701ft 403kts
20-Sep-18 18:24 45.898217 -123.047021 118 21071ft 412kts
20-Sep-18 18:25 45.851967 -122.900417 114 22332ft 424kts
20-Sep-18 18:26 45.802172 -122.756246 116 23603ft 432kts
20-Sep-18 18:27 45.749344 -122.600196 126 24778ft 440kts
20-Sep-18 18:28 45.666370 -122.475529 138 25838ft 443kts
20-Sep-18 18:29 45.577344 -122.352751 140 26811ft 449kts
20-Sep-18 18:30 45.491622 -122.239034 140 27602ft 456kts
20-Sep-18 18:31 45.399486 -122.114013 140 28367ft 461kts
20-Sep-18 18:32 45.307579 -121.989253 140 29046ft 467kts
20-Sep-18 18:33 45.213743 -121.862414 140 29672ft 472kts
20-Sep-18 18:34 45.118388 -121.734170 140 30336ft 473kts
20-Sep-18 18:35 45.027688 -121.600574 119 31108ft 478kts
20-Sep-18 18:36 45.017925 -121.416244 91 31109ft 485kts
20-Sep-18 18:37 44.998856 -121.266702 105 31101ft 487kts
20-Sep-18 18:38 44.961666 -121.085568 107 31100ft 481kts
20-Sep-18 18:39 44.919332 -120.907715 106 31108ft 476kts
20-Sep-18 18:40 44.883583 -120.736929 108 31121ft 472kts
20-Sep-18 18:41 44.844351 -120.562792 108 31134ft 470kts
20-Sep-18 18:42 44.804673 -120.387357 107 31147ft 471kts
20-Sep-18 18:43 44.768156 -120.228847 108 31144ft 472kts
20-Sep-18 18:44 44.727806 -120.053732 108 31164ft 472kts
20-Sep-18 18:45 44.687436 -119.878318 108 31174ft 473kts
20-Sep-18 18:46 44.646812 -119.703812 110 31174ft 473kts
20-Sep-18 18:47 44.596463 -119.532986 113 31177ft 474kts
20-Sep-18 18:48 44.546185 -119.362570 113 31178ft 475kts
20-Sep-18 18:49 44.497633 -119.200015 113 31172ft 475kts
20-Sep-18 18:50 44.446902 -119.029865 113 31173ft 475kts
20-Sep-18 18:51 44.395925 -118.859741 113 31174ft 476kts
20-Sep-18 18:52 44.344562 -118.689502 113 31177ft 477kts
20-Sep-18 18:53 44.292717 -118.518761 113 31178ft 478kts
20-Sep-18 18:54 44.241203 -118.350222 113 31134ft 478kts
20-Sep-18 18:55 44.191087 -118.188922 114 29940ft 468kts
20-Sep-18 18:56 44.140584 -118.026110 114 27597ft 450kts
20-Sep-18 18:57 44.091847 -117.869791 114 25353ft 433kts
20-Sep-18 18:58 44.051906 -117.715677 107 23143ft 417kts
20-Sep-18 18:59 44.011549 -117.568640 113 21017ft 401kts
20-Sep-18 19:00 43.967687 -117.430025 114 18949ft 386kts
20-Sep-18 19:01 43.924824 -117.299299 115 16954ft 372kts
20-Sep-18 19:02 43.882800 -117.173492 115 14992ft 359kts
20-Sep-18 19:03 43.841839 -117.050565 114 13065ft 346kts
20-Sep-18 19:04 43.802722 -116.932723 114 11608ft 320kts
20-Sep-18 19:05 43.767516 -116.824997 113 10248ft 304kts
20-Sep-18 19:06 43.722174 -116.729342 128 8776ft 294kts
20-Sep-18 19:07 43.675376 -116.648699 128 8226ft 260kts
20-Sep-18 19:08 43.631506 -116.573609 127 7316ft 237kts
20-Sep-18 19:09 43.591916 -116.506538 127 6494ft 200kts
20-Sep-18 19:10 43.566368 -116.441170 112 5415ft 193kts
20-Sep-18 19:11 43.546108 -116.380872 112 4926ft 167kts
20-Sep-18 19:12 43.525315 -116.322894 113 4816ft 173kts
20-Sep-18 19:13 43.506421 -116.261702 109 4774ft 174kts
20-Sep-18 19:14 43.490080 -116.200090 110 4719ft 171kts
20-Sep-18 19:15 43.482345 -116.140076 38 4314ft 163kts
20-Sep-18 19:16 43.523498 -116.120511 354 4090ft 146kts
20-Sep-18 19:17 43.544456 -116.161271 297 3499ft 132kts
20-Sep-18 19:18 43.559464 -116.205250 297 2882ft 122kts
20-Sep-18 19:19 43.566600 -116.223922 26 2880ft 10kts
20-Sep-18 19:20 43.566991 -116.221649 56 2880ft 15kts
20-Sep-18 19:21 43.567387 -116.221215 24 2880ft 0kts
20-Sep-18 19:22 43.567387 -116.221215 24 2880ft 0kts
20-Sep-18 19:23 43.567387 -116.221215 24 2880ft 0kts

Navigation Log

Ident Type
Flight plan parsing failed, navigation log unavailable